Time;durP1;ratioP1;P1;durP2;ratioP2;P2;SDS_P1;SDS_P2;PMS_P1;PMS_P2;Temp;Humidity;BMP_temperature;BMP_pressure;BME280_temperature;BME280_humidity;BME280_pressure;Samples;Min_cycle;Max_cycle;Signal;HPM_P1;HPM_P2
2021/12/30 00:01:54;;;;;;;13.27;1.80;;;8.80;99.90;;;;;;4250658;27;20058;-85
2021/12/30 00:03:55;;;;;;;19.10;2.03;;;8.80;99.90;;;;;;4231549;28;20055;-86
2021/12/30 00:05:56;;;;;;;18.65;2.95;;;8.80;99.90;;;;;;4250590;27;20094;-86
2021/12/30 00:07:57;;;;;;;13.73;1.85;;;9.10;99.90;;;;;;4249110;27;20502;-85
2021/12/30 00:09:59;;;;;;;14.75;1.67;;;8.80;99.90;;;;;;4232597;28;20062;-85
2021/12/30 00:12:00;;;;;;;12.82;2.10;;;8.80;99.90;;;;;;4214731;28;20393;-85
2021/12/30 00:14:01;;;;;;;18.73;2.15;;;9.20;99.90;;;;;;4232314;28;20082;-85
2021/12/30 00:16:03;;;;;;;19.33;1.70;;;8.80;99.90;;;;;;4215228;28;20044;-86
2021/12/30 00:18:05;;;;;;;20.35;2.10;;;8.80;99.90;;;;;;4232362;28;20048;-85
2021/12/30 00:20:07;;;;;;;7.68;1.58;;;8.70;99.90;;;;;;4250646;27;20483;-85
2021/12/30 00:22:09;;;;;;;18.40;2.60;;;8.70;99.90;;;;;;4250947;27;20046;-86
2021/12/30 00:24:11;;;;;;;22.80;2.47;;;8.70;99.90;;;;;;4250339;27;20490;-85
2021/12/30 00:26:13;;;;;;;11.88;2.30;;;8.70;99.90;;;;;;4232906;28;20062;-86
2021/12/30 00:28:22;;;;;;;21.27;3.30;;;8.70;99.90;;;;;;4232930;28;20047;-86
2021/12/30 00:30:23;;;;;;;22.83;2.90;;;8.80;99.90;;;;;;4252490;27;20469;-86
2021/12/30 00:32:24;;;;;;;17.23;2.10;;;8.80;99.90;;;;;;4251429;27;20205;-85
2021/12/30 00:34:24;;;;;;;15.32;2.45;;;9.10;99.90;;;;;;4250312;27;20050;-85
2021/12/30 00:36:25;;;;;;;17.88;2.58;;;9.60;99.90;;;;;;4231472;28;20081;-85
2021/12/30 00:38:26;;;;;;;20.48;2.63;;;8.80;99.90;;;;;;4214821;28;20435;-85
2021/12/30 00:40:27;;;;;;;13.90;2.20;;;8.70;99.90;;;;;;4214670;28;20099;-85
2021/12/30 00:42:28;;;;;;;16.83;3.20;;;8.90;99.90;;;;;;4231504;28;20039;-86
2021/12/30 00:44:29;;;;;;;16.80;1.77;;;8.70;99.90;;;;;;4214395;28;20536;-85
2021/12/30 00:46:30;;;;;;;20.15;2.20;;;8.30;99.90;;;;;;4231722;28;20047;-85
2021/12/30 00:48:30;;;;;;;23.88;2.67;;;9.70;99.90;;;;;;4231507;28;20055;-85
2021/12/30 00:50:35;;;;;;;23.10;2.85;;;8.70;99.90;;;;;;4231291;28;20050;-85
2021/12/30 00:52:36;;;;;;;22.80;3.38;;;8.70;99.90;;;;;;4230480;28;20051;-85
2021/12/30 00:54:37;;;;;;;23.35;2.97;;;8.70;99.90;;;;;;4231134;28;20052;-86
2021/12/30 00:56:38;;;;;;;28.00;4.00;;;8.70;99.90;;;;;;4251691;27;20051;-85
2021/12/30 00:58:38;;;;;;;21.45;3.00;;;9.10;99.90;;;;;;4232791;28;20463;-85
2021/12/30 01:00:41;;;;;;;21.42;2.90;;;8.70;99.90;;;;;;4249551;27;20053;-85
2021/12/30 01:02:42;;;;;;;28.52;2.53;;;8.70;99.90;;;;;;4231354;28;20044;-85
2021/12/30 01:04:43;;;;;;;35.28;3.22;;;9.00;99.90;;;;;;4249454;27;20039;-85
2021/12/30 01:06:44;;;;;;;12.90;2.53;;;9.60;99.90;;;;;;4213992;28;20570;-85
2021/12/30 01:08:45;;;;;;;16.60;2.50;;;8.70;99.90;;;;;;4249630;27;20035;-85
2021/12/30 01:10:46;;;;;;;22.08;2.33;;;9.00;99.90;;;;;;4249716;27;20118;-85
2021/12/30 01:12:48;;;;;;;23.08;3.63;;;8.70;99.90;;;;;;4231210;28;20097;-85
2021/12/30 01:14:51;;;;;;;24.30;2.97;;;8.60;99.90;;;;;;4248843;27;20050;-85
2021/12/30 01:16:56;;;;;;;19.25;2.53;;;9.20;99.90;;;;;;4249319;27;20043;-85
2021/12/30 01:21:03;;;;;;;22.20;2.95;;;8.60;99.90;;;;;;4249087;27;20047;-86
2021/12/30 01:23:04;;;;;;;23.40;3.70;;;8.90;99.90;;;;;;4230304;28;20047;-85
2021/12/30 01:25:07;;;;;;;26.45;3.00;;;9.30;99.90;;;;;;4249083;27;20122;-85
2021/12/30 01:27:09;;;;;;;10.10;2.55;;;8.60;99.90;;;;;;4249050;27;20043;-85
2021/12/30 01:29:11;;;;;;;18.52;3.88;;;8.80;99.90;;;;;;4247734;27;20057;-85
2021/12/30 01:31:12;;;;;;;24.15;2.42;;;8.60;99.90;;;;;;4249001;27;20051;-85
2021/12/30 01:33:14;;;;;;;29.60;2.92;;;8.50;99.90;;;;;;4230454;28;20053;-86
2021/12/30 01:35:22;;;;;;;24.55;3.05;;;9.60;99.90;;;;;;4230513;28;20048;-85
2021/12/30 01:37:24;;;;;;;18.15;4.15;;;8.80;99.90;;;;;;4230768;28;20054;-85
2021/12/30 01:39:28;;;;;;;19.67;2.88;;;7.80;99.90;;;;;;4247501;27;20046;-85
2021/12/30 01:41:30;;;;;;;28.45;2.78;;;9.10;99.90;;;;;;4249249;27;20060;-85
2021/12/30 01:43:33;;;;;;;17.10;2.40;;;8.70;99.90;;;;;;4249089;27;20038;-85
2021/12/30 01:45:34;;;;;;;18.77;2.58;;;9.10;99.90;;;;;;4230757;28;20122;-85
2021/12/30 01:47:37;;;;;;;24.25;3.42;;;8.50;99.90;;;;;;4231024;28;20357;-85
2021/12/30 01:49:38;;;;;;;26.52;2.72;;;8.50;99.90;;;;;;4246354;27;20043;-85
2021/12/30 01:51:43;;;;;;;31.33;3.50;;;8.40;99.90;;;;;;4266503;27;20045;-85
2021/12/30 01:53:49;;;;;;;26.17;4.45;;;9.10;99.90;;;;;;4265619;27;20035;-85
2021/12/30 01:55:50;;;;;;;17.65;2.97;;;8.30;99.90;;;;;;4247686;27;20078;-85
2021/12/30 01:57:51;;;;;;;33.97;3.75;;;8.40;99.90;;;;;;4247772;27;20092;-85
2021/12/30 01:59:52;;;;;;;21.65;2.53;;;8.30;99.90;;;;;;4230765;28;20128;-85
2021/12/30 02:01:56;;;;;;;23.83;2.88;;;9.10;99.90;;;;;;4266024;27;20042;-85
2021/12/30 02:03:57;;;;;;;21.23;2.67;;;8.30;99.90;;;;;;4265460;27;20061;-85
2021/12/30 02:05:58;;;;;;;26.73;3.22;;;7.40;99.90;;;;;;4265981;27;20043;-85
2021/12/30 02:07:59;;;;;;;14.05;3.40;;;8.30;99.90;;;;;;4264531;27;20038;-85
2021/12/30 02:10:02;;;;;;;19.13;3.22;;;8.20;99.90;;;;;;4265265;27;20050;-85
2021/12/30 02:12:04;;;;;;;18.48;2.47;;;8.20;99.90;;;;;;4264995;27;20057;-85
2021/12/30 02:14:05;;;;;;;26.88;3.08;;;8.20;99.90;;;;;;4230052;28;20043;-84
2021/12/30 02:16:06;;;;;;;27.70;3.35;;;8.20;99.90;;;;;;4229505;28;20052;-83
2021/12/30 02:18:07;;;;;;;18.75;3.53;;;8.20;99.90;;;;;;4246437;27;20043;-83
2021/12/30 02:20:30;;;;;;;19.48;3.80;;;8.20;99.90;;;;;;4245365;27;20046;-83
2021/12/30 02:22:31;;;;;;;28.75;4.00;;;8.10;99.90;;;;;;4245945;27;20073;-87
2021/12/30 02:24:32;;;;;;;23.88;2.80;;;8.10;99.90;;;;;;4247400;27;20055;-84
2021/12/30 02:26:33;;;;;;;19.80;3.22;;;8.10;99.90;;;;;;4246633;27;20043;-85
2021/12/30 02:28:35;;;;;;;21.75;3.08;;;8.10;99.90;;;;;;4265103;27;20161;-85
2021/12/30 02:30:37;;;;;;;15.70;2.60;;;8.10;99.90;;;;;;4265099;27;20053;-84
2021/12/30 02:32:40;;;;;;;23.58;2.42;;;8.30;99.90;;;;;;4265912;27;20039;-83
2021/12/30 02:34:41;;;;;;;30.75;3.10;;;9.10;99.90;;;;;;4265549;27;20085;-83
2021/12/30 02:36:42;;;;;;;22.70;2.70;;;8.10;99.90;;;;;;4230255;28;20052;-83
2021/12/30 02:38:45;;;;;;;20.73;2.63;;;7.70;99.90;;;;;;4265730;27;20031;-83
2021/12/30 02:40:49;;;;;;;29.73;3.03;;;8.20;99.90;;;;;;4265233;27;20433;-83
2021/12/30 02:42:50;;;;;;;27.35;3.10;;;8.20;99.90;;;;;;4247486;27;20043;-83
2021/12/30 02:44:52;;;;;;;21.45;2.60;;;8.10;99.90;;;;;;4264987;27;20050;-83
2021/12/30 02:46:54;;;;;;;22.08;2.15;;;8.70;99.90;;;;;;4246634;27;20043;-83
2021/12/30 02:48:56;;;;;;;22.05;3.60;;;8.10;99.90;;;;;;4265393;27;20525;-84
2021/12/30 02:51:00;;;;;;;32.22;3.63;;;8.10;99.90;;;;;;4265239;27;20057;-84
2021/12/30 02:53:01;;;;;;;27.48;3.88;;;8.50;99.90;;;;;;4264769;27;20039;-84
2021/12/30 02:55:02;;;;;;;24.10;3.45;;;8.70;99.90;;;;;;4246463;27;20564;-84
2021/12/30 02:57:03;;;;;;;25.55;3.00;;;8.10;99.90;;;;;;4264975;27;20035;-83
2021/12/30 02:59:04;;;;;;;22.08;2.75;;;8.10;99.90;;;;;;4265231;27;20042;-83
2021/12/30 03:01:10;;;;;;;19.45;2.60;;;8.60;99.90;;;;;;4246464;27;20039;-83
2021/12/30 03:03:19;;;;;;;23.35;2.50;;;8.10;99.90;;;;;;4246968;27;20047;-83
2021/12/30 03:05:20;;;;;;;27.42;3.15;;;8.10;99.90;;;;;;4265368;27;20047;-83
2021/12/30 03:07:21;;;;;;;27.73;2.85;;;8.60;99.90;;;;;;4265146;27;20504;-84
2021/12/30 03:09:22;;;;;;;21.98;3.00;;;8.00;99.90;;;;;;4263870;27;20046;-83
2021/12/30 03:11:25;;;;;;;20.50;2.70;;;8.00;99.90;;;;;;4264638;27;20502;-83
2021/12/30 03:13:31;;;;;;;20.40;3.03;;;8.00;99.90;;;;;;4246985;27;20058;-84
2021/12/30 03:15:32;;;;;;;20.55;3.45;;;8.00;99.90;;;;;;4228846;28;20685;-83
2021/12/30 03:17:33;;;;;;;27.45;4.63;;;9.10;99.90;;;;;;4246964;28;20098;-84
2021/12/30 03:19:34;;;;;;;24.13;3.58;;;8.10;99.90;;;;;;4260616;27;20043;-83
2021/12/30 03:21:35;;;;;;;18.42;2.95;;;9.30;99.90;;;;;;4248020;27;20139;-83
2021/12/30 03:23:35;;;;;;;17.15;3.55;;;8.30;99.90;;;;;;4230643;28;20051;-83
2021/12/30 03:25:36;;;;;;;27.15;3.38;;;8.10;99.90;;;;;;4248422;27;20047;-83
2021/12/30 03:27:37;;;;;;;17.77;2.90;;;8.10;99.90;;;;;;4230044;28;20048;-83
2021/12/30 03:29:38;;;;;;;24.63;3.42;;;8.90;99.90;;;;;;4248487;28;20043;-83
2021/12/30 03:31:38;;;;;;;27.27;5.07;;;8.10;99.90;;;;;;4213678;28;20052;-83
2021/12/30 03:33:40;;;;;;;25.33;3.95;;;8.10;99.90;;;;;;4212938;28;20470;-83
2021/12/30 03:35:41;;;;;;;20.48;3.00;;;8.70;99.90;;;;;;4230309;28;20054;-84
2021/12/30 03:37:43;;;;;;;25.40;3.40;;;8.20;99.90;;;;;;4248424;27;20118;-83
2021/12/30 03:39:46;;;;;;;23.52;3.17;;;8.20;99.90;;;;;;4212716;28;20454;-84
2021/12/30 03:41:47;;;;;;;19.73;3.55;;;8.60;99.90;;;;;;4247375;28;20484;-84
2021/12/30 03:43:48;;;;;;;30.67;3.63;;;8.30;99.90;;;;;;4247621;28;20126;-84
2021/12/30 03:45:49;;;;;;;24.27;3.40;;;9.10;99.90;;;;;;4229456;28;20106;-84
2021/12/30 03:47:51;;;;;;;29.98;3.45;;;8.30;99.90;;;;;;4247512;28;20035;-84
2021/12/30 03:49:52;;;;;;;22.23;4.30;;;8.40;99.90;;;;;;4231351;28;20052;-84
2021/12/30 03:51:54;;;;;;;31.00;4.18;;;8.70;99.90;;;;;;4225127;28;20519;-84
2021/12/30 03:53:57;;;;;;;32.30;4.78;;;7.80;99.90;;;;;;4265494;27;20478;-83
2021/12/30 03:55:58;;;;;;;30.55;4.80;;;8.40;99.90;;;;;;4265348;27;20566;-83
2021/12/30 03:57:59;;;;;;;30.35;4.97;;;8.50;99.90;;;;;;4264260;27;20049;-83
2021/12/30 03:59:59;;;;;;;21.20;3.70;;;8.90;99.90;;;;;;4229385;28;20427;-83
2021/12/30 04:02:00;;;;;;;26.67;4.65;;;8.50;99.90;;;;;;4264798;27;20042;-83
2021/12/30 04:04:01;;;;;;;33.42;4.28;;;8.80;99.90;;;;;;4264897;27;20042;-83
2021/12/30 04:06:02;;;;;;;24.45;4.53;;;9.00;99.90;;;;;;4246280;28;20047;-83
2021/12/30 04:08:03;;;;;;;30.08;4.88;;;8.90;99.90;;;;;;4246280;28;20039;-83
2021/12/30 04:10:06;;;;;;;26.08;4.63;;;8.50;99.90;;;;;;4246014;28;20126;-84
2021/12/30 04:12:07;;;;;;;20.75;4.38;;;8.60;99.90;;;;;;4265634;27;20060;-83
2021/12/30 04:14:08;;;;;;;33.78;5.93;;;8.50;99.90;;;;;;4265636;27;20046;-83
2021/12/30 04:16:09;;;;;;;37.75;6.10;;;8.80;99.90;;;;;;4245857;28;20087;-83
2021/12/30 04:18:10;;;;;;;31.58;4.90;;;8.60;99.90;;;;;;4264650;27;20114;-83
2021/12/30 04:20:13;;;;;;;27.88;4.50;;;8.60;99.90;;;;;;4264129;27;20038;-84
2021/12/30 04:22:18;;;;;;;29.55;6.88;;;8.70;99.90;;;;;;4264589;27;20448;-84
2021/12/30 04:24:20;;;;;;;26.27;5.93;;;8.70;99.90;;;;;;4264818;27;20038;-84
2021/12/30 04:26:22;;;;;;;29.50;5.30;;;9.30;99.90;;;;;;4264821;27;20046;-84
2021/12/30 04:28:23;;;;;;;24.80;4.00;;;9.10;99.90;;;;;;4268657;27;20094;-83
2021/12/30 04:30:26;;;;;;;23.40;4.38;;;8.80;99.90;;;;;;4250620;27;20047;-83
2021/12/30 04:32:27;;;;;;;26.58;4.28;;;8.80;99.90;;;;;;4273408;27;20090;-83
2021/12/30 04:34:27;;;;;;;25.55;4.63;;;8.80;99.90;;;;;;4269449;27;20050;-83
2021/12/30 04:36:28;;;;;;;32.47;4.63;;;8.80;99.90;;;;;;4268815;27;20076;-84
2021/12/30 04:38:31;;;;;;;35.50;4.20;;;9.10;99.90;;;;;;4262435;27;20250;-84
2021/12/30 04:40:32;;;;;;;21.52;4.10;;;8.80;99.90;;;;;;4272623;27;20090;-83
2021/12/30 04:42:33;;;;;;;24.95;4.95;;;8.80;99.90;;;;;;4267822;27;20406;-83
2021/12/30 04:44:34;;;;;;;27.67;4.45;;;9.00;99.90;;;;;;4249916;27;20046;-83
2021/12/30 04:46:36;;;;;;;30.42;4.55;;;8.90;99.90;;;;;;4267881;27;20097;-83
2021/12/30 04:48:37;;;;;;;26.27;4.35;;;8.90;99.90;;;;;;4267451;27;20428;-83
2021/12/30 04:50:38;;;;;;;25.65;4.72;;;9.40;99.90;;;;;;4248710;27;20039;-84
2021/12/30 04:52:39;;;;;;;26.08;3.67;;;8.90;99.90;;;;;;4248723;27;20054;-83
2021/12/30 04:54:40;;;;;;;28.13;3.90;;;9.00;99.90;;;;;;4267043;27;20039;-83
2021/12/30 04:56:41;;;;;;;43.47;4.95;;;9.20;99.90;;;;;;4248723;27;20604;-84
2021/12/30 04:58:42;;;;;;;32.30;5.03;;;9.00;99.90;;;;;;4248424;27;20035;-84
2021/12/30 05:00:43;;;;;;;46.55;5.03;;;9.10;99.90;;;;;;4267116;27;20114;-84
2021/12/30 05:04:53;;;;;;;29.95;4.82;;;9.10;99.90;;;;;;4266939;27;20060;-83
2021/12/30 05:06:54;;;;;;;34.22;5.38;;;9.70;99.90;;;;;;4247925;27;20046;-84
2021/12/30 05:08:55;;;;;;;40.33;5.18;;;9.20;99.90;;;;;;4231185;28;20116;-84
2021/12/30 05:10:56;;;;;;;31.65;5.20;;;9.30;99.90;;;;;;4266818;27;20406;-84
2021/12/30 05:12:56;;;;;;;31.65;4.50;;;9.40;99.90;;;;;;4266450;27;20043;-84
2021/12/30 05:14:57;;;;;;;39.50;4.85;;;9.10;99.90;;;;;;4266954;27;20047;-84
2021/12/30 05:17:03;;;;;;;32.35;6.85;;;9.40;99.90;;;;;;4266558;27;20054;-84
2021/12/30 05:19:05;;;;;;;34.08;5.47;;;9.40;99.90;;;;;;4265929;27;20043;-83
2021/12/30 05:21:06;;;;;;;27.23;5.03;;;9.50;99.90;;;;;;4266037;27;20088;-85
2021/12/30 05:23:08;;;;;;;38.15;6.28;;;9.50;99.90;;;;;;4245376;27;20047;-85
2021/12/30 05:25:10;;;;;;;32.88;5.47;;;9.50;99.90;;;;;;4240615;27;20455;-85
2021/12/30 05:27:11;;;;;;;36.47;6.25;;;9.60;99.90;;;;;;4266829;27;20043;-85
2021/12/30 05:29:13;;;;;;;38.30;5.88;;;9.60;99.90;;;;;;4247512;27;20043;-85
2021/12/30 05:31:13;;;;;;;35.58;6.50;;;9.60;99.90;;;;;;4265753;27;20142;-84
2021/12/30 05:33:15;;;;;;;46.28;7.72;;;9.70;99.90;;;;;;4247312;27;20058;-84
2021/12/30 05:35:16;;;;;;;38.83;8.10;;;9.80;99.90;;;;;;4247265;27;20107;-85
2021/12/30 05:37:17;;;;;;;52.97;7.68;;;9.80;99.90;;;;;;4266184;27;20125;-85
2021/12/30 05:39:20;;;;;;;58.17;9.48;;;10.00;99.90;;;;;;4246037;27;20035;-85
2021/12/30 05:41:24;;;;;;;48.40;7.90;;;;;;;;;;4265445;27;20043;-84
2021/12/30 05:43:25;;;;;;;41.65;8.52;;;9.90;99.90;;;;;;4246900;27;20046;-84
2021/12/30 05:45:26;;;;;;;46.35;7.93;;;10.80;99.90;;;;;;4246999;27;20047;-84
2021/12/30 05:47:28;;;;;;;40.08;7.55;;;10.20;99.90;;;;;;4265474;27;20046;-84
2021/12/30 05:49:29;;;;;;;44.80;7.93;;;10.10;99.90;;;;;;4265688;27;20047;-84
2021/12/30 05:51:29;;;;;;;44.65;8.18;;;10.10;99.90;;;;;;4230285;28;20043;-85
2021/12/30 05:53:31;;;;;;;43.35;8.95;;;10.10;99.90;;;;;;4265840;27;20047;-84
2021/12/30 05:55:33;;;;;;;37.88;7.32;;;10.10;99.90;;;;;;4246589;27;20411;-85
2021/12/30 05:57:34;;;;;;;40.17;7.57;;;10.20;99.90;;;;;;4265390;27;20492;-84
2021/12/30 05:59:35;;;;;;;37.70;6.80;;;10.20;99.90;;;;;;4246983;27;20050;-84
2021/12/30 06:01:36;;;;;;;35.35;7.85;;;;;;;;;;4265504;27;20074;-84
2021/12/30 06:03:37;;;;;;;28.40;7.13;;;;;;;;;;4260978;27;20103;-84
2021/12/30 06:05:38;;;;;;;30.38;6.47;;;;;;;;;;4249264;27;20117;-84
2021/12/30 06:07:39;;;;;;;27.30;5.35;;;;;;;;;;4246683;27;20051;-84
2021/12/30 06:09:42;;;;;;;32.85;5.32;;;;;;;;;;4263883;27;20099;-84
2021/12/30 06:11:43;;;;;;;17.73;4.90;;;;;;;;;;4229523;28;20097;-84
2021/12/30 06:13:44;;;;;;;17.42;5.28;;;;;;;;;;4248059;27;20399;-84
2021/12/30 06:15:45;;;;;;;13.25;5.00;;;;;;;;;;4247908;27;20039;-84
2021/12/30 06:17:46;;;;;;;17.17;4.70;;;;;;;;;;4229844;28;20055;-84
2021/12/30 06:19:48;;;;;;;15.07;3.78;;;;;;;;;;4254058;27;20149;-85
2021/12/30 06:21:50;;;;;;;19.55;4.80;;;;;;;;;;4265145;27;20118;-84
2021/12/30 06:23:51;;;;;;;14.27;3.88;;;;;;;;;;4259187;27;20125;-84
2021/12/30 06:25:52;;;;;;;14.10;4.10;;;;;;;;;;4233915;27;20043;-84
2021/12/30 06:27:53;;;;;;;16.95;4.30;;;;;;;;;;4248603;27;20078;-84
2021/12/30 06:29:54;;;;;;;14.15;4.20;;;;;;;;;;4242940;27;20067;-84
2021/12/30 06:31:55;;;;;;;13.02;3.33;;;10.80;99.90;;;;;;4247638;27;20479;-84
2021/12/30 06:33:57;;;;;;;14.95;4.32;;;10.50;99.90;;;;;;4265293;27;20050;-84
2021/12/30 06:35:58;;;;;;;13.23;4.13;;;10.50;99.90;;;;;;4265356;27;20035;-85
2021/12/30 06:38:00;;;;;;;19.45;4.10;;;11.40;99.90;;;;;;4265607;27;20046;-84
2021/12/30 06:40:01;;;;;;;13.70;4.18;;;10.60;99.90;;;;;;4265344;27;20506;-84
2021/12/30 06:42:02;;;;;;;15.80;4.68;;;11.00;99.90;;;;;;4253059;27;20086;-85
2021/12/30 06:44:03;;;;;;;20.85;5.40;;;10.70;99.90;;;;;;4248832;27;20027;-85
2021/12/30 06:46:05;;;;;;;24.10;5.80;;;10.60;99.90;;;;;;4248327;27;20128;-84
2021/12/30 06:48:07;;;;;;;22.08;4.72;;;10.60;99.90;;;;;;4230596;28;20086;-84
2021/12/30 06:50:11;;;;;;;21.17;4.85;;;10.60;99.90;;;;;;4248528;27;20043;-84
2021/12/30 06:52:13;;;;;;;16.67;5.32;;;10.70;99.90;;;;;;4230468;28;20054;-85
2021/12/30 06:54:13;;;;;;;25.63;5.35;;;10.70;99.90;;;;;;4248855;27;20039;-84
2021/12/30 06:56:14;;;;;;;20.13;4.70;;;10.70;99.90;;;;;;4213971;28;20059;-84
2021/12/30 06:58:16;;;;;;;16.13;4.63;;;10.70;99.90;;;;;;4230540;28;20468;-85
2021/12/30 07:00:17;;;;;;;22.75;5.47;;;10.80;99.90;;;;;;4213886;28;20162;-85
2021/12/30 07:02:18;;;;;;;19.23;5.20;;;11.10;99.90;;;;;;4230611;28;20083;-85
2021/12/30 07:04:19;;;;;;;18.10;4.90;;;10.70;99.90;;;;;;4249859;27;20046;-85
2021/12/30 07:06:19;;;;;;;21.35;4.78;;;10.70;99.90;;;;;;4223454;28;20165;-85
2021/12/30 07:08:22;;;;;;;21.90;5.15;;;10.70;99.90;;;;;;4260781;27;20035;-85
2021/12/30 07:10:24;;;;;;;19.35;3.85;;;11.20;99.90;;;;;;4249163;27;20910;-85
2021/12/30 07:12:25;;;;;;;21.45;5.35;;;10.80;99.90;;;;;;4233585;28;20048;-85
2021/12/30 07:14:28;;;;;;;18.40;4.60;;;10.80;99.90;;;;;;4259328;27;20054;-85
2021/12/30 07:16:30;;;;;;;22.00;4.88;;;10.80;99.90;;;;;;4249654;27;20110;-85
2021/12/30 07:18:32;;;;;;;15.23;4.57;;;10.80;99.90;;;;;;4225574;28;20039;-85
2021/12/30 07:20:33;;;;;;;20.90;4.28;;;10.80;99.90;;;;;;4247951;28;20089;-85
2021/12/30 07:22:35;;;;;;;19.23;5.22;;;10.80;99.90;;;;;;4229499;28;20051;-85
2021/12/30 07:24:38;;;;;;;13.38;4.13;;;11.70;99.90;;;;;;4257243;27;20039;-85
2021/12/30 07:26:39;;;;;;;20.65;4.68;;;10.90;99.90;;;;;;4243446;28;20434;-85
2021/12/30 07:28:40;;;;;;;17.00;5.40;;;10.80;99.90;;;;;;4249029;28;20039;-85
2021/12/30 07:30:41;;;;;;;14.52;4.18;;;11.00;99.90;;;;;;4266028;27;20070;-85
2021/12/30 07:32:44;;;;;;;18.30;4.43;;;10.90;99.90;;;;;;4266244;27;20039;-85
2021/12/30 07:34:45;;;;;;;16.17;3.53;;;10.90;99.90;;;;;;4223678;28;20405;-86
2021/12/30 07:36:46;;;;;;;17.42;4.10;;;10.90;99.90;;;;;;4218176;28;20043;-85
2021/12/30 07:38:49;;;;;;;14.65;3.85;;;10.90;99.90;;;;;;4213502;28;20044;-85
2021/12/30 07:40:50;;;;;;;15.40;3.42;;;11.30;99.90;;;;;;4213283;28;20091;-85
2021/12/30 07:42:51;;;;;;;13.60;2.78;;;10.90;99.90;;;;;;4230794;28;20039;-85
2021/12/30 07:44:51;;;;;;;11.40;3.42;;;11.00;99.90;;;;;;4229776;28;20044;-85
2021/12/30 07:46:52;;;;;;;9.25;2.95;;;10.90;99.90;;;;;;4230658;28;20035;-85
2021/12/30 07:48:53;;;;;;;8.93;2.67;;;11.40;99.90;;;;;;4229620;28;20096;-85
2021/12/30 07:50:55;;;;;;;9.73;2.60;;;11.30;99.90;;;;;;4230666;28;20046;-85
2021/12/30 07:52:56;;;;;;;8.13;3.08;;;11.00;99.90;;;;;;4234225;28;20173;-85
2021/12/30 07:54:57;;;;;;;13.93;3.30;;;11.00;99.90;;;;;;4230617;28;20043;-85
2021/12/30 07:56:58;;;;;;;10.18;2.88;;;11.00;99.90;;;;;;4230612;28;20130;-85
2021/12/30 07:58:58;;;;;;;9.52;2.60;;;11.00;99.90;;;;;;4230192;28;20055;-85
2021/12/30 08:01:00;;;;;;;7.63;2.53;;;11.20;99.90;;;;;;4229549;28;20384;-85
2021/12/30 08:03:01;;;;;;;9.05;3.03;;;11.20;99.90;;;;;;4233389;28;20055;-85
2021/12/30 08:05:02;;;;;;;6.43;2.60;;;11.00;99.90;;;;;;4234617;28;20055;-85
2021/12/30 08:07:06;;;;;;;8.75;2.75;;;11.00;99.90;;;;;;4233355;28;20135;-85
2021/12/30 08:09:07;;;;;;;4.93;2.15;;;11.10;99.90;;;;;;4215145;28;20043;-83
2021/12/30 08:11:08;;;;;;;6.88;2.25;;;11.00;99.90;;;;;;4232536;28;20044;-84
2021/12/30 08:13:09;;;;;;;7.60;2.17;;;11.00;99.90;;;;;;4232785;28;20081;-84
2021/12/30 08:15:10;;;;;;;8.13;2.50;;;11.10;99.90;;;;;;4231504;28;20054;-84
2021/12/30 08:17:14;;;;;;;5.63;2.40;;;11.10;99.90;;;;;;4233147;27;20047;-84
2021/12/30 08:19:15;;;;;;;5.30;2.17;;;11.10;99.90;;;;;;4233730;28;20407;-84
2021/12/30 08:21:16;;;;;;;5.05;2.20;;;11.10;99.90;;;;;;4231946;28;20047;-84
2021/12/30 08:23:17;;;;;;;4.90;2.30;;;11.10;99.90;;;;;;4233519;28;20051;-84
2021/12/30 08:25:19;;;;;;;4.03;2.08;;;11.20;99.90;;;;;;4233426;28;20167;-84
2021/12/30 08:27:22;;;;;;;3.30;1.85;;;11.10;99.90;;;;;;4232541;28;20498;-84
2021/12/30 08:29:26;;;;;;;3.53;1.70;;;11.10;99.90;;;;;;4233801;27;20047;-83
2021/12/30 08:31:35;;;;;;;3.55;1.80;;;11.20;99.90;;;;;;4233574;28;20043;-84
2021/12/30 08:33:36;;;;;;;3.30;1.60;;;11.20;99.90;;;;;;4233740;28;20423;-84
2021/12/30 08:35:37;;;;;;;2.65;1.55;;;11.20;99.90;;;;;;4223287;28;20046;-84
2021/12/30 08:37:39;;;;;;;3.70;1.52;;;11.20;99.90;;;;;;4241033;27;20149;-83
2021/12/30 08:39:41;;;;;;;3.40;1.58;;;11.30;99.90;;;;;;4255847;27;20054;-84
2021/12/30 08:41:41;;;;;;;2.70;1.40;;;11.20;99.90;;;;;;4233666;27;20487;-83
2021/12/30 08:43:42;;;;;;;2.15;1.45;;;11.30;99.90;;;;;;4232760;28;20044;-84
2021/12/30 08:45:45;;;;;;;2.83;1.58;;;11.30;99.90;;;;;;4250796;27;20031;-84
2021/12/30 08:47:46;;;;;;;3.90;1.20;;;11.60;99.90;;;;;;4232760;28;20043;-84
2021/12/30 08:49:47;;;;;;;2.78;1.25;;;11.30;99.90;;;;;;4232297;28;20108;-84
2021/12/30 08:51:48;;;;;;;4.60;1.50;;;11.50;99.90;;;;;;4246976;27;20039;-84
2021/12/30 08:53:50;;;;;;;2.20;1.25;;;11.40;99.90;;;;;;4215238;28;20040;-82
2021/12/30 08:55:51;;;;;;;3.97;1.88;;;11.30;99.90;;;;;;4232253;28;20487;-81
2021/12/30 08:58:01;;;;;;;5.65;2.20;;;11.40;99.90;;;;;;4232031;28;20522;-82
2021/12/30 09:00:06;;;;;;;5.90;2.30;;;11.30;99.90;;;;;;4232242;28;20475;-83
2021/12/30 09:02:10;;;;;;;7.28;2.85;;;11.40;99.90;;;;;;4215248;28;20040;-82
2021/12/30 09:04:11;;;;;;;7.00;2.80;;;11.40;99.90;;;;;;4250590;27;20561;-82
2021/12/30 09:06:12;;;;;;;6.60;2.45;;;11.40;99.90;;;;;;4250428;27;20051;-82
2021/12/30 09:08:15;;;;;;;6.00;2.50;;;11.50;99.90;;;;;;4249987;27;20447;-82
2021/12/30 09:10:18;;;;;;;7.50;2.55;;;11.50;99.90;;;;;;4250102;27;20039;-82
2021/12/30 09:12:18;;;;;;;8.25;2.58;;;11.50;99.90;;;;;;4250603;27;20054;-82
2021/12/30 09:14:20;;;;;;;5.47;2.30;;;11.00;99.90;;;;;;4230652;28;20052;-82
2021/12/30 09:16:22;;;;;;;5.90;1.98;;;11.60;99.90;;;;;;4250308;27;20051;-83
2021/12/30 09:18:26;;;;;;;4.75;1.70;;;11.50;99.90;;;;;;4249528;27;20055;-83
2021/12/30 09:20:27;;;;;;;7.25;2.67;;;12.20;99.90;;;;;;4231809;28;20048;-83
2021/12/30 09:22:28;;;;;;;7.03;2.00;;;11.50;99.90;;;;;;4249785;27;20131;-83
2021/12/30 09:24:29;;;;;;;6.45;2.38;;;11.70;99.90;;;;;;4250124;27;20394;-83
2021/12/30 09:26:33;;;;;;;6.15;1.88;;;11.50;99.90;;;;;;4231637;28;20043;-83
2021/12/30 09:28:34;;;;;;;7.53;1.98;;;11.60;99.90;;;;;;4231441;28;20047;-83
2021/12/30 09:30:34;;;;;;;3.92;1.52;;;11.60;99.90;;;;;;4231598;28;20148;-83
2021/12/30 09:32:35;;;;;;;8.30;2.00;;;11.60;99.90;;;;;;4249818;27;20049;-83
2021/12/30 09:34:36;;;;;;;8.98;1.90;;;11.60;99.90;;;;;;4249936;27;20483;-83
2021/12/30 09:36:38;;;;;;;8.73;2.20;;;11.60;99.90;;;;;;4249962;27;20095;-83
2021/12/30 09:38:39;;;;;;;13.00;2.10;;;11.60;99.90;;;;;;4249563;27;20039;-83
2021/12/30 09:40:40;;;;;;;10.20;2.13;;;11.60;99.90;;;;;;4231237;28;20044;-83
2021/12/30 09:42:45;;;;;;;7.70;1.65;;;11.60;99.90;;;;;;4232437;28;20035;-83
2021/12/30 09:44:46;;;;;;;6.88;2.20;;;11.60;99.90;;;;;;4250012;27;20043;-83
2021/12/30 09:46:47;;;;;;;9.68;2.53;;;11.60;99.90;;;;;;4250042;27;20125;-83
2021/12/30 09:48:48;;;;;;;10.15;2.25;;;12.10;99.90;;;;;;4231107;28;20032;-83
2021/12/30 09:50:52;;;;;;;15.20;1.92;;;11.60;99.90;;;;;;4231809;28;20062;-83
2021/12/30 09:52:54;;;;;;;9.18;2.10;;;11.60;99.90;;;;;;4249938;27;20081;-83
2021/12/30 09:54:55;;;;;;;9.75;2.13;;;10.90;99.90;;;;;;4231549;28;20495;-84
2021/12/30 09:56:56;;;;;;;8.45;2.65;;;11.60;99.90;;;;;;4231466;27;20043;-84
2021/12/30 09:58:57;;;;;;;9.48;2.35;;;11.60;99.90;;;;;;4248700;27;20083;-84
2021/12/30 10:00:59;;;;;;;11.43;2.78;;;11.60;99.90;;;;;;4231466;28;20048;-84
2021/12/30 10:03:06;;;;;;;8.73;2.15;;;11.60;99.90;;;;;;4232370;27;20063;-84
2021/12/30 10:05:12;;;;;;;13.15;3.10;;;11.60;99.90;;;;;;4261122;27;20061;-84
2021/12/30 10:07:21;;;;;;;10.93;2.15;;;11.60;99.90;;;;;;4231468;28;20513;-85
2021/12/30 10:09:29;;;;;;;6.07;2.55;;;11.60;99.90;;;;;;4219989;28;20073;-84
2021/12/30 10:11:42;;;;;;;10.70;2.05;;;11.70;99.90;;;;;;4231796;28;20453;-84
2021/12/30 10:13:57;;;;;;;7.85;2.58;;;11.70;99.90;;;;;;4248316;27;20054;-84
2021/12/30 10:16:01;;;;;;;6.00;2.33;;;11.70;99.90;;;;;;4248063;27;20071;-85
2021/12/30 10:18:02;;;;;;;13.23;2.85;;;12.10;99.90;;;;;;4246096;27;20035;-83
2021/12/30 10:20:25;;;;;;;11.60;2.20;;;11.70;99.90;;;;;;4235520;27;20051;-85
2021/12/30 10:22:26;;;;;;;13.98;2.65;;;11.70;99.90;;;;;;4244147;27;20115;-87
2021/12/30 10:24:35;;;;;;;15.07;2.72;;;11.70;99.90;;;;;;4231629;27;20105;-87
2021/12/30 10:26:58;;;;;;;14.30;2.17;;;11.70;99.90;;;;;;4254214;27;20043;-87
2021/12/30 10:29:04;;;;;;;10.77;2.03;;;11.70;99.90;;;;;;4239123;27;20043;-88
2021/12/30 10:31:15;;;;;;;11.07;2.50;;;11.70;99.90;;;;;;4251738;27;20043;-88
2021/12/30 10:33:26;;;;;;;12.02;1.88;;;11.70;99.90;;;;;;4232690;27;20043;-87
2021/12/30 10:35:35;;;;;;;14.93;2.28;;;12.00;99.90;;;;;;4232824;28;20043;-87
2021/12/30 10:37:42;;;;;;;15.93;1.63;;;11.80;99.90;;;;;;4236222;28;20050;-88
2021/12/30 10:39:42;;;;;;;9.77;1.98;;;11.70;99.90;;;;;;4239456;27;20406;-87
2021/12/30 10:41:44;;;;;;;4.03;1.42;;;11.80;99.90;;;;;;4270632;27;20074;-87
2021/12/30 10:43:51;;;;;;;11.98;2.35;;;11.80;99.90;;;;;;4238527;28;20039;-87